Time;durP1;ratioP1;P1;durP2;ratioP2;P2;SDS_P1;SDS_P2;PMS_P1;PMS_P2;Temp;Humidity;BMP_temperature;BMP_pressure;BME280_temperature;BME280_humidity;BME280_pressure;Samples;Min_cycle;Max_cycle;Signal;HPM_P1;HPM_P2
2024/03/28 00:00:58;;;;;;;5.77;2.93;;;8.20;99.90;;;;;;5071998;28;20024;-50
2024/03/28 00:03:25;;;;;;;21.10;11.43;;;8.30;99.90;;;;;;5071875;28;20535;-52
2024/03/28 00:05:58;;;;;;;4.80;2.63;;;8.20;99.90;;;;;;5071699;28;20029;-52
2024/03/28 00:08:24;;;;;;;4.37;2.80;;;8.20;99.90;;;;;;5071816;28;20035;-52
2024/03/28 00:10:51;;;;;;;6.20;2.83;;;8.20;99.90;;;;;;5071981;28;20024;-50
2024/03/28 00:13:17;;;;;;;4.23;2.67;;;8.10;99.90;;;;;;5071782;28;20036;-51
2024/03/28 00:15:43;;;;;;;4.27;2.50;;;8.10;99.90;;;;;;5071477;28;20024;-50
2024/03/28 00:18:09;;;;;;;5.87;2.70;;;8.10;99.90;;;;;;5071550;28;20025;-51
2024/03/28 00:20:36;;;;;;;4.60;2.63;;;8.10;99.90;;;;;;5071647;28;20116;-52
2024/03/28 00:23:02;;;;;;;5.20;2.60;;;8.10;99.90;;;;;;5071717;28;20021;-51
2024/03/28 00:25:30;;;;;;;5.17;2.87;;;8.10;99.90;;;;;;5071473;28;20163;-53
2024/03/28 00:27:57;;;;;;;5.43;2.90;;;8.10;99.90;;;;;;5071640;28;20029;-51
2024/03/28 00:30:23;;;;;;;7.30;2.80;;;8.10;99.90;;;;;;5071404;28;20150;-49
2024/03/28 00:32:48;;;;;;;4.83;2.90;;;8.10;99.90;;;;;;5071651;28;20036;-50
2024/03/28 00:35:16;;;;;;;5.30;2.70;;;8.10;99.90;;;;;;5071475;28;20095;-49
2024/03/28 00:37:42;;;;;;;6.37;2.97;;;8.10;99.90;;;;;;5071461;28;20029;-53
2024/03/28 00:40:08;;;;;;;6.27;2.97;;;8.10;99.90;;;;;;5071365;28;20033;-51
2024/03/28 00:42:34;;;;;;;6.47;2.77;;;8.00;99.90;;;;;;5071564;28;20033;-49
2024/03/28 00:45:00;;;;;;;4.90;3.10;;;8.00;99.90;;;;;;5071299;28;20021;-49
2024/03/28 00:47:25;;;;;;;6.43;3.40;;;8.00;99.90;;;;;;5071362;28;20460;-53
2024/03/28 00:49:51;;;;;;;5.90;2.97;;;8.00;99.90;;;;;;5071635;28;20117;-49
2024/03/28 00:52:17;;;;;;;5.97;3.10;;;8.00;99.90;;;;;;5071565;28;20032;-53
2024/03/28 00:54:42;;;;;;;6.07;3.20;;;8.00;99.90;;;;;;5071279;28;20039;-49
2024/03/28 00:57:08;;;;;;;8.80;2.70;;;8.00;99.90;;;;;;5053367;28;20036;-49
2024/03/28 00:59:33;;;;;;;4.20;2.50;;;8.00;99.90;;;;;;5071201;28;20246;-54
2024/03/28 01:01:59;;;;;;;5.60;2.83;;;8.00;99.90;;;;;;5071419;28;20071;-50
2024/03/28 01:04:25;;;;;;;4.37;2.60;;;8.00;99.90;;;;;;5072307;28;20025;-52
2024/03/28 01:06:50;;;;;;;4.27;2.40;;;8.10;99.90;;;;;;5074993;28;20393;-49
2024/03/28 01:09:16;;;;;;;5.60;2.60;;;8.00;99.90;;;;;;5075054;28;20024;-50
2024/03/28 01:11:41;;;;;;;5.20;2.40;;;8.00;99.90;;;;;;5074913;28;20116;-49
2024/03/28 01:14:07;;;;;;;5.57;2.50;;;8.00;99.90;;;;;;5074878;28;20029;-50
2024/03/28 01:16:32;;;;;;;3.40;2.40;;;8.00;99.90;;;;;;5074823;28;20085;-50
2024/03/28 01:18:58;;;;;;;5.97;2.47;;;8.00;99.90;;;;;;5074811;28;20116;-52
2024/03/28 01:21:23;;;;;;;5.17;2.03;;;8.00;99.90;;;;;;5074848;28;20025;-54
2024/03/28 01:23:49;;;;;;;3.67;1.90;;;8.00;99.90;;;;;;5074920;28;20028;-49
2024/03/28 01:26:15;;;;;;;3.07;2.00;;;8.10;99.90;;;;;;5074617;28;20033;-51
2024/03/28 01:28:40;;;;;;;4.90;2.10;;;8.00;99.90;;;;;;5074727;28;20024;-50
2024/03/28 01:31:07;;;;;;;3.67;1.90;;;7.90;99.90;;;;;;5074802;28;20093;-49
2024/03/28 01:33:32;;;;;;;3.33;1.60;;;7.90;99.90;;;;;;5074684;28;20389;-52
2024/03/28 01:35:59;;;;;;;4.00;2.00;;;7.90;99.90;;;;;;5074394;28;20036;-50
2024/03/28 01:38:24;;;;;;;3.57;1.90;;;8.00;99.90;;;;;;5074490;28;20040;-53
2024/03/28 01:40:50;;;;;;;4.20;2.00;;;8.00;99.90;;;;;;5074547;28;20028;-53
2024/03/28 01:43:16;;;;;;;5.03;2.00;;;8.00;99.90;;;;;;5074486;28;20039;-54
2024/03/28 01:45:42;;;;;;;3.97;1.60;;;8.00;99.90;;;;;;5074309;28;20496;-51
2024/03/28 01:48:08;;;;;;;3.00;1.80;;;8.00;99.90;;;;;;5075101;28;20028;-53
2024/03/28 01:50:34;;;;;;;3.50;2.00;;;7.90;99.90;;;;;;5074925;28;20024;-50
2024/03/28 01:53:00;;;;;;;5.87;1.80;;;7.90;99.90;;;;;;5075222;28;20052;-55
2024/03/28 01:55:26;;;;;;;3.90;2.00;;;7.90;99.90;;;;;;5074865;28;20115;-50
2024/03/28 01:57:52;;;;;;;3.70;2.17;;;7.90;99.90;;;;;;5074893;28;20399;-50
2024/03/28 02:00:19;;;;;;;3.93;1.83;;;7.90;99.90;;;;;;5074761;28;20033;-52
2024/03/28 02:02:45;;;;;;;3.73;1.83;;;7.90;99.90;;;;;;5074318;28;20029;-51
2024/03/28 02:05:10;;;;;;;2.80;2.00;;;7.90;99.90;;;;;;5073921;28;20086;-49
2024/03/28 02:07:36;;;;;;;2.27;1.63;;;7.90;99.90;;;;;;5073962;28;20036;-51
2024/03/28 02:10:02;;;;;;;3.07;1.90;;;7.90;99.90;;;;;;5073957;28;20029;-51
2024/03/28 02:12:31;;;;;;;2.87;1.80;;;7.90;99.90;;;;;;5072714;28;20036;-50
2024/03/28 02:14:56;;;;;;;3.23;1.70;;;7.90;99.90;;;;;;5073381;28;20033;-53
2024/03/28 02:17:22;;;;;;;3.67;1.90;;;7.90;99.90;;;;;;5073820;28;20041;-50
2024/03/28 02:19:47;;;;;;;2.63;1.67;;;7.90;99.90;;;;;;5073600;28;20028;-53
2024/03/28 02:22:13;;;;;;;4.33;1.70;;;7.90;99.90;;;;;;5073810;28;20500;-49
2024/03/28 02:24:40;;;;;;;3.13;1.80;;;7.90;99.90;;;;;;5073610;28;20020;-50
2024/03/28 02:27:06;;;;;;;3.53;1.90;;;7.90;99.90;;;;;;5073559;28;20523;-50
2024/03/28 02:29:31;;;;;;;2.30;1.50;;;7.90;99.90;;;;;;5073734;28;20032;-49
2024/03/28 02:31:57;;;;;;;2.43;1.60;;;7.90;99.90;;;;;;5073675;28;20255;-51
2024/03/28 02:34:23;;;;;;;3.37;1.83;;;7.90;99.90;;;;;;5073971;28;20047;-50
2024/03/28 02:36:48;;;;;;;3.63;1.70;;;7.80;99.90;;;;;;5071958;28;20105;-54
2024/03/28 02:39:14;;;;;;;3.77;1.87;;;7.80;99.90;;;;;;5055431;28;20062;-51
2024/03/28 02:41:40;;;;;;;4.03;1.77;;;7.80;99.90;;;;;;5073249;28;20085;-54
2024/03/28 02:44:06;;;;;;;2.97;1.90;;;7.80;99.90;;;;;;5073369;28;20028;-51
2024/03/28 02:46:31;;;;;;;4.27;2.83;;;7.80;99.90;;;;;;5073064;28;20031;-50
2024/03/28 02:48:57;;;;;;;3.30;2.00;;;7.80;99.90;;;;;;5073163;28;20064;-51
2024/03/28 02:51:22;;;;;;;3.97;1.90;;;7.80;99.90;;;;;;5073123;28;20040;-53
2024/03/28 02:53:48;;;;;;;4.73;2.03;;;7.80;99.90;;;;;;5073111;28;20045;-51
2024/03/28 02:56:13;;;;;;;3.63;1.87;;;7.80;99.90;;;;;;5072732;28;20044;-51
2024/03/28 02:58:39;;;;;;;4.33;2.07;;;7.80;99.90;;;;;;5072951;28;20036;-52
2024/03/28 03:01:05;;;;;;;4.73;2.40;;;7.80;99.90;;;;;;5072978;28;20060;-53
2024/03/28 03:03:30;;;;;;;3.83;2.07;;;7.80;99.90;;;;;;5073176;28;20020;-50
2024/03/28 03:05:56;;;;;;;5.23;2.00;;;7.80;99.90;;;;;;5072655;28;20469;-49
2024/03/28 03:08:21;;;;;;;3.50;2.20;;;7.80;99.90;;;;;;5072858;28;20021;-50
2024/03/28 03:10:47;;;;;;;3.93;2.00;;;7.80;99.90;;;;;;5072644;28;20381;-49
2024/03/28 03:13:12;;;;;;;3.00;1.87;;;7.80;99.90;;;;;;5072874;28;20100;-50
2024/03/28 03:15:38;;;;;;;3.70;2.37;;;7.70;99.90;;;;;;5072519;28;20465;-52
2024/03/28 03:18:04;;;;;;;4.00;1.93;;;7.70;99.90;;;;;;5072884;28;20024;-50
2024/03/28 03:20:37;;;;;;;5.67;2.40;;;7.80;99.90;;;;;;5072588;28;20024;-51
2024/03/28 03:23:05;;;;;;;5.33;2.37;;;7.70;99.90;;;;;;5072628;28;20025;-50
2024/03/28 03:25:49;;;;;;;5.83;2.47;;;7.70;99.90;;;;;;5072273;28;20032;-48
2024/03/28 03:36:27;;;;;;;5.33;2.50;;;7.60;99.90;;;;;;5072136;28;20103;-53
2024/03/28 03:38:53;;;;;;;3.80;2.27;;;7.60;99.90;;;;;;5072168;28;20163;-51
2024/03/28 03:41:18;;;;;;;3.73;2.00;;;7.70;99.90;;;;;;5072218;28;20381;-53
2024/03/28 03:43:44;;;;;;;3.70;2.00;;;7.70;99.90;;;;;;5072189;28;20063;-55
2024/03/28 03:46:09;;;;;;;4.23;1.77;;;7.70;99.90;;;;;;5072003;28;20029;-50
2024/03/28 03:48:35;;;;;;;5.67;2.13;;;7.70;99.90;;;;;;5072472;28;20036;-53
2024/03/28 03:51:01;;;;;;;4.70;2.57;;;7.70;99.90;;;;;;5071967;28;20078;-54
2024/03/28 03:53:26;;;;;;;3.87;2.30;;;7.70;99.90;;;;;;5072297;28;20107;-53
2024/03/28 03:55:58;;;;;;;3.80;2.30;;;7.70;99.90;;;;;;5071746;28;20044;-54
2024/03/28 03:58:24;;;;;;;3.97;2.37;;;7.60;99.90;;;;;;5072199;28;20037;-52
2024/03/28 04:00:49;;;;;;;4.73;2.80;;;7.60;99.90;;;;;;5072108;28;20031;-51
2024/03/28 04:03:16;;;;;;;4.60;2.60;;;7.60;99.90;;;;;;5072327;28;20035;-52
2024/03/28 04:05:42;;;;;;;4.03;1.83;;;7.50;99.90;;;;;;5072006;28;20032;-51
2024/03/28 04:08:07;;;;;;;5.07;2.70;;;7.50;99.90;;;;;;5072226;28;20031;-51
2024/03/28 04:10:33;;;;;;;5.43;2.80;;;7.60;99.90;;;;;;5072043;28;20056;-50
2024/03/28 04:12:58;;;;;;;5.83;2.57;;;7.60;99.90;;;;;;5071919;28;20032;-50
2024/03/28 04:15:24;;;;;;;5.00;2.50;;;7.60;99.90;;;;;;5071607;28;20029;-51
2024/03/28 04:17:50;;;;;;;5.40;2.83;;;7.60;99.90;;;;;;5071881;28;20032;-54
2024/03/28 04:20:15;;;;;;;4.87;2.70;;;7.50;99.90;;;;;;5071696;28;20032;-50
2024/03/28 04:22:41;;;;;;;5.40;3.30;;;7.50;99.90;;;;;;5071756;28;20028;-52
2024/03/28 04:25:07;;;;;;;6.27;3.20;;;7.50;99.90;;;;;;5071545;28;20052;-50
2024/03/28 04:27:33;;;;;;;5.97;3.00;;;7.50;99.90;;;;;;5071754;28;20070;-49
2024/03/28 04:29:59;;;;;;;6.00;3.23;;;7.50;99.90;;;;;;5071515;28;20024;-51
2024/03/28 04:32:24;;;;;;;6.93;3.03;;;7.50;99.90;;;;;;5071807;28;20559;-50
2024/03/28 04:34:50;;;;;;;6.23;2.93;;;7.50;99.90;;;;;;5071432;28;20029;-50
2024/03/28 04:37:16;;;;;;;5.43;2.87;;;7.50;99.90;;;;;;5071686;28;20029;-50
2024/03/28 04:39:41;;;;;;;6.77;3.03;;;7.50;99.90;;;;;;5074603;28;20029;-51
2024/03/28 04:42:07;;;;;;;5.60;2.83;;;7.40;99.90;;;;;;5075672;28;20474;-51
2024/03/28 04:44:33;;;;;;;7.97;3.10;;;7.40;99.90;;;;;;5075447;28;20035;-50
2024/03/28 04:46:58;;;;;;;5.53;3.07;;;7.30;99.90;;;;;;5075487;28;20017;-51
2024/03/28 04:49:24;;;;;;;4.67;2.83;;;7.30;99.90;;;;;;5075425;28;20028;-49
2024/03/28 04:51:50;;;;;;;5.83;2.80;;;7.30;99.90;;;;;;5075455;28;20131;-50
2024/03/28 04:54:16;;;;;;;5.17;2.97;;;7.30;99.90;;;;;;5075480;28;20032;-50
2024/03/28 04:56:41;;;;;;;5.13;2.70;;;7.30;99.90;;;;;;5075012;28;20082;-51
2024/03/28 04:59:07;;;;;;;5.07;2.80;;;7.30;99.90;;;;;;5075141;28;20036;-51
2024/03/28 05:01:33;;;;;;;5.77;2.90;;;7.30;99.90;;;;;;5075246;28;20028;-49
2024/03/28 05:03:59;;;;;;;6.70;3.20;;;7.30;99.90;;;;;;5075320;28;20035;-53
2024/03/28 05:06:24;;;;;;;10.37;2.83;;;7.30;99.90;;;;;;5075175;28;20112;-49
2024/03/28 05:08:51;;;;;;;7.33;3.10;;;7.20;99.90;;;;;;5075275;28;20028;-49
2024/03/28 05:11:17;;;;;;;6.07;3.10;;;7.20;99.90;;;;;;5057413;28;20024;-50
2024/03/28 05:13:45;;;;;;;5.83;2.97;;;7.20;99.90;;;;;;5057256;28;20374;-52
2024/03/28 05:16:14;;;;;;;6.40;3.38;;;7.20;99.90;;;;;;5075023;28;20032;-52
2024/03/28 05:18:42;;;;;;;6.67;3.20;;;7.30;99.90;;;;;;5057850;28;20489;-50
2024/03/28 05:21:08;;;;;;;6.63;3.30;;;7.20;99.90;;;;;;5075022;28;20934;-50
2024/03/28 05:23:33;;;;;;;6.50;3.30;;;7.20;99.90;;;;;;5057228;28;20397;-51
2024/03/28 05:25:59;;;;;;;6.70;3.13;;;7.20;99.90;;;;;;5074849;28;20056;-51
2024/03/28 05:28:25;;;;;;;6.00;2.80;;;7.20;99.90;;;;;;5074839;28;20032;-51
2024/03/28 05:30:52;;;;;;;8.47;3.67;;;7.10;99.90;;;;;;5056806;28;20021;-50
2024/03/28 05:33:18;;;;;;;6.90;3.00;;;7.10;99.90;;;;;;5075081;28;20025;-53
2024/03/28 05:35:44;;;;;;;8.17;4.07;;;7.00;99.90;;;;;;5056747;28;20028;-52
2024/03/28 05:38:10;;;;;;;8.27;3.00;;;7.00;99.90;;;;;;5074580;28;20028;-49
2024/03/28 05:40:36;;;;;;;5.70;2.93;;;7.10;99.90;;;;;;5074803;28;20035;-49
2024/03/28 05:43:01;;;;;;;8.00;2.63;;;7.10;99.90;;;;;;5074716;28;20463;-50
2024/03/28 05:45:27;;;;;;;5.57;3.07;;;7.10;99.90;;;;;;5074370;28;20031;-50
2024/03/28 05:47:53;;;;;;;5.83;2.60;;;7.10;99.90;;;;;;5074481;28;20024;-51
2024/03/28 05:50:18;;;;;;;6.77;2.60;;;7.20;99.90;;;;;;5073505;28;20036;-52
2024/03/28 05:52:44;;;;;;;5.67;3.00;;;7.20;99.90;;;;;;5074569;28;20033;-54
2024/03/28 05:55:09;;;;;;;7.50;3.20;;;7.20;99.90;;;;;;5074251;28;20033;-51
2024/03/28 05:57:35;;;;;;;7.40;3.50;;;7.20;99.90;;;;;;5074284;28;20511;-54
2024/03/28 06:00:00;;;;;;;7.77;3.00;;;7.20;99.90;;;;;;5074091;28;20033;-54
2024/03/28 06:02:26;;;;;;;4.83;2.20;;;7.30;99.90;;;;;;5074254;28;20133;-52
2024/03/28 06:04:52;;;;;;;6.57;3.07;;;7.30;99.90;;;;;;5072957;28;20021;-51
2024/03/28 06:07:17;;;;;;;4.97;2.83;;;7.30;99.90;;;;;;5074372;28;20029;-52
2024/03/28 06:09:43;;;;;;;5.13;2.73;;;7.40;99.90;;;;;;5056233;28;20089;-50
2024/03/28 06:12:09;;;;;;;5.37;2.90;;;7.40;99.90;;;;;;5074318;28;20028;-51
2024/03/28 06:14:36;;;;;;;6.57;2.90;;;7.40;99.90;;;;;;5074427;28;20024;-50
2024/03/28 06:17:02;;;;;;;6.53;3.00;;;7.50;99.90;;;;;;5074268;28;20044;-53
2024/03/28 06:19:27;;;;;;;5.80;2.90;;;7.60;99.90;;;;;;5072976;28;20041;-54
2024/03/28 06:21:53;;;;;;;5.77;2.60;;;7.70;99.90;;;;;;5074283;28;20025;-50
2024/03/28 06:24:19;;;;;;;5.63;3.00;;;7.70;99.90;;;;;;5074237;28;20033;-53
2024/03/28 06:26:46;;;;;;;5.47;2.43;;;7.80;99.90;;;;;;5073726;28;20143;-51
2024/03/28 06:29:12;;;;;;;5.13;3.00;;;7.90;99.90;;;;;;5073954;28;20035;-51
2024/03/28 06:31:40;;;;;;;5.27;2.87;;;7.90;99.90;;;;;;5073763;28;20382;-50
2024/03/28 06:34:06;;;;;;;4.20;2.70;;;8.00;99.90;;;;;;5073628;28;20538;-55
2024/03/28 06:36:32;;;;;;;3.53;2.10;;;8.10;99.90;;;;;;5055367;28;20128;-52
2024/03/28 06:38:57;;;;;;;3.90;2.43;;;8.30;99.90;;;;;;5055400;28;20107;-52
2024/03/28 06:41:23;;;;;;;6.20;2.80;;;8.70;99.90;;;;;;5073273;28;20032;-49
2024/03/28 06:43:49;;;;;;;4.57;2.03;;;9.10;99.90;;;;;;5073387;28;20036;-49
2024/03/28 06:46:15;;;;;;;5.07;2.20;;;9.60;99.90;;;;;;5073105;28;20089;-49
2024/03/28 06:48:42;;;;;;;4.43;2.10;;;9.90;99.90;;;;;;5073347;28;20299;-51
2024/03/28 06:51:07;;;;;;;4.90;2.13;;;10.10;99.90;;;;;;5073170;28;20024;-51
2024/03/28 06:53:33;;;;;;;3.40;1.90;;;10.30;99.90;;;;;;5073285;28;20443;-49
2024/03/28 06:55:59;;;;;;;12.97;3.60;;;10.20;99.90;;;;;;5072898;28;20035;-49
2024/03/28 06:58:24;;;;;;;4.50;1.90;;;10.40;99.90;;;;;;5073317;28;20039;-51
2024/03/28 07:01:02;;;;;;;5.07;1.93;;;10.60;99.90;;;;;;5073013;28;20028;-50
2024/03/28 07:03:28;;;;;;;2.90;1.70;;;10.80;99.90;;;;;;5073342;28;20036;-51
2024/03/28 07:05:53;;;;;;;3.30;1.73;;;11.00;99.90;;;;;;5072915;28;20435;-53
2024/03/28 07:08:19;;;;;;;5.87;1.90;;;11.00;99.90;;;;;;5072930;28;20453;-52
2024/03/28 07:10:45;;;;;;;3.43;1.70;;;10.80;99.90;;;;;;5072834;28;20021;-53
2024/03/28 07:13:10;;;;;;;5.30;1.80;;;10.50;99.90;;;;;;5072834;28;20020;-51
2024/03/28 07:15:36;;;;;;;3.00;1.33;;;10.30;99.90;;;;;;5072598;28;20465;-50
2024/03/28 07:18:02;;;;;;;4.13;1.73;;;10.20;99.90;;;;;;5072909;28;20025;-49
2024/03/28 07:20:28;;;;;;;2.67;1.53;;;10.20;99.90;;;;;;5072699;28;20032;-50
2024/03/28 07:22:53;;;;;;;3.57;1.60;;;10.30;99.90;;;;;;5073194;28;20028;-51
2024/03/28 07:25:19;;;;;;;3.13;1.80;;;10.40;99.90;;;;;;5072606;28;20388;-52
2024/03/28 07:27:44;;;;;;;4.67;1.90;;;10.30;99.90;;;;;;5072582;28;20033;-49
2024/03/28 07:30:11;;;;;;;2.67;1.30;;;10.20;99.90;;;;;;5072472;28;20039;-49
2024/03/28 07:32:37;;;;;;;2.47;1.30;;;10.10;99.90;;;;;;5072423;28;20557;-50
2024/03/28 07:35:03;;;;;;;2.50;1.53;;;10.10;99.90;;;;;;5072297;28;20440;-50
2024/03/28 07:37:28;;;;;;;3.13;1.60;;;10.00;99.90;;;;;;5072301;28;20040;-52
2024/03/28 07:39:54;;;;;;;3.97;1.43;;;10.00;99.90;;;;;;5072333;28;20477;-49
2024/03/28 07:42:19;;;;;;;3.63;1.40;;;10.10;99.90;;;;;;5072392;28;20024;-49
2024/03/28 07:44:45;;;;;;;2.70;1.30;;;10.30;99.90;;;;;;5072096;28;20488;-49
2024/03/28 07:47:11;;;;;;;27.23;14.67;;;10.30;99.90;;;;;;5072196;28;20056;-50
2024/03/28 07:49:36;;;;;;;4.40;1.17;;;10.30;99.90;;;;;;5072184;28;20039;-49
2024/03/28 07:52:02;;;;;;;2.53;1.30;;;10.10;99.90;;;;;;5071980;28;20051;-53
2024/03/28 07:54:28;;;;;;;3.40;1.77;;;9.90;99.90;;;;;;5054244;28;20081;-51
2024/03/28 07:56:53;;;;;;;3.07;1.40;;;9.80;99.90;;;;;;5071970;28;20063;-50
2024/03/28 07:59:20;;;;;;;2.83;1.40;;;9.70;99.90;;;;;;5071908;28;20036;-49
2024/03/28 08:01:46;;;;;;;3.87;2.00;;;9.60;99.90;;;;;;5072113;28;20563;-49
2024/03/28 08:04:12;;;;;;;4.27;1.90;;;9.40;99.90;;;;;;5072251;28;20029;-49
2024/03/28 08:06:39;;;;;;;2.77;1.50;;;9.30;99.90;;;;;;5071747;28;20032;-51
2024/03/28 08:09:05;;;;;;;2.90;1.77;;;9.20;99.90;;;;;;5071936;28;20478;-50
2024/03/28 08:11:31;;;;;;;2.93;1.40;;;9.20;99.90;;;;;;5071878;28;20052;-50
2024/03/28 08:13:56;;;;;;;4.70;1.37;;;9.10;99.90;;;;;;5071599;28;20024;-51
2024/03/28 08:16:22;;;;;;;5.87;1.63;;;9.00;99.90;;;;;;5071740;28;20032;-52
2024/03/28 08:18:48;;;;;;;4.80;1.80;;;8.90;99.90;;;;;;5072019;28;20071;-50
2024/03/28 08:21:15;;;;;;;4.90;2.10;;;8.70;99.90;;;;;;5071772;28;20028;-54
2024/03/28 08:23:42;;;;;;;5.20;2.27;;;8.50;99.90;;;;;;5071884;28;20025;-50
2024/03/28 08:26:09;;;;;;;3.30;1.80;;;8.40;99.90;;;;;;5071637;28;20039;-50
2024/03/28 08:28:35;;;;;;;5.67;1.93;;;8.20;99.90;;;;;;5071867;28;20029;-53
2024/03/28 08:31:00;;;;;;;5.90;1.93;;;8.10;99.90;;;;;;5071891;28;20104;-51
2024/03/28 08:33:27;;;;;;;3.47;1.83;;;7.80;99.90;;;;;;5071856;28;20478;-49
2024/03/28 08:35:53;;;;;;;4.37;2.10;;;7.80;99.90;;;;;;5071505;28;20086;-49
2024/03/28 08:38:18;;;;;;;5.47;2.30;;;7.70;99.90;;;;;;5071700;28;20028;-51
2024/03/28 08:40:44;;;;;;;3.43;2.03;;;7.70;99.90;;;;;;5071886;28;20465;-49
2024/03/28 08:43:09;;;;;;;4.50;2.13;;;7.60;99.90;;;;;;5071820;28;20065;-50
2024/03/28 08:45:35;;;;;;;5.97;2.10;;;7.60;99.90;;;;;;5071598;28;20492;-49
2024/03/28 08:48:05;;;;;;;3.90;2.07;;;7.50;99.90;;;;;;5071662;28;20031;-50
2024/03/28 08:50:30;;;;;;;;;;;7.50;99.90;;;;;;5072162;28;20040;-50
2024/03/28 08:52:56;;;;;;;6.37;2.50;;;7.50;99.90;;;;;;5071677;28;20006;-52
2024/03/28 08:55:23;;;;;;;3.97;2.27;;;7.50;99.90;;;;;;5071433;28;20115;-52
2024/03/28 08:57:51;;;;;;;4.97;2.30;;;7.40;99.90;;;;;;5071471;28;20033;-50
2024/03/28 09:00:19;;;;;;;6.60;2.50;;;7.40;99.90;;;;;;5071329;28;20108;-49
2024/03/28 09:02:45;;;;;;;5.03;2.43;;;7.40;99.90;;;;;;5053551;28;20025;-49
2024/03/28 09:05:11;;;;;;;4.93;2.10;;;7.40;99.90;;;;;;5053474;28;20082;-50
2024/03/28 09:07:38;;;;;;;6.73;2.20;;;7.40;99.90;;;;;;5071792;28;20025;-50
2024/03/28 09:10:07;;;;;;;3.93;2.20;;;7.40;99.90;;;;;;5071452;28;20063;-50
2024/03/28 09:12:37;;;;;;;5.63;2.47;;;7.40;99.90;;;;;;5053615;28;20037;-51
2024/03/28 09:15:03;;;;;;;4.43;2.20;;;7.40;99.90;;;;;;5071218;28;20086;-49
2024/03/28 09:17:29;;;;;;;5.77;2.80;;;7.30;99.90;;;;;;5071416;28;20455;-49
2024/03/28 09:19:57;;;;;;;5.50;2.70;;;7.30;99.90;;;;;;5071789;28;20056;-52
2024/03/28 09:22:23;;;;;;;7.77;3.10;;;7.30;99.90;;;;;;5072055;28;20033;-50
2024/03/28 09:24:49;;;;;;;6.07;2.80;;;7.40;99.90;;;;;;5071686;28;20032;-54
2024/03/28 09:27:15;;;;;;;4.83;2.30;;;7.30;99.90;;;;;;5057391;28;20029;-52
2024/03/28 09:29:41;;;;;;;5.33;2.27;;;7.30;99.90;;;;;;5074986;28;20032;-50
2024/03/28 09:32:10;;;;;;;5.17;2.10;;;7.40;99.90;;;;;;5074802;28;20389;-49
2024/03/28 09:34:37;;;;;;;5.50;2.25;;;7.40;99.90;;;;;;5056847;28;20040;-52
2024/03/28 09:37:07;;;;;;;5.88;2.63;;;7.40;99.90;;;;;;5074833;28;20081;-51
2024/03/28 09:39:34;;;;;;;4.32;2.42;;;7.40;99.90;;;;;;5074947;28;20438;-51
2024/03/28 09:42:06;;;;;;;5.53;2.40;;;7.50;99.90;;;;;;5075063;28;20381;-50
2024/03/28 09:44:33;;;;;;;4.33;2.17;;;7.50;99.90;;;;;;5056661;28;20028;-52
2024/03/28 09:46:59;;;;;;;4.27;2.27;;;7.60;99.90;;;;;;5074683;28;20064;-50
2024/03/28 09:49:27;;;;;;;6.23;2.63;;;7.60;99.90;;;;;;5074571;28;20036;-49
2024/03/28 09:51:56;;;;;;;5.77;3.00;;;7.60;99.90;;;;;;5074949;28;20119;-49
2024/03/28 09:54:22;;;;;;;6.53;2.80;;;7.60;99.90;;;;;;5074721;28;20032;-49
2024/03/28 09:56:48;;;;;;;5.87;2.97;;;7.60;99.90;;;;;;5074300;28;20047;-52
2024/03/28 09:59:15;;;;;;;5.97;3.00;;;7.70;99.90;;;;;;5073966;28;20058;-51
2024/03/28 10:01:42;;;;;;;4.60;2.70;;;7.70;99.90;;;;;;5074293;28;20099;-52
2024/03/28 10:04:17;;;;;;;5.07;2.30;;;7.70;99.90;;;;;;5074191;28;20098;-53
2024/03/28 10:06:54;;;;;;;5.17;2.50;;;7.70;99.90;;;;;;5074076;28;20121;-49
2024/03/28 10:09:22;;;;;;;5.40;3.10;;;7.60;99.90;;;;;;5074282;28;20542;-52
2024/03/28 10:11:48;;;;;;;6.93;2.60;;;7.60;99.90;;;;;;5074180;28;20044;-50
2024/03/28 10:14:28;;;;;;;5.20;2.57;;;7.60;99.90;;;;;;5074108;28;20063;-51
2024/03/28 10:17:01;;;;;;;8.73;3.27;;;7.60;99.90;;;;;;5073916;28;20044;-50
2024/03/28 10:19:29;;;;;;;7.30;3.37;;;7.70;99.90;;;;;;5073867;28;20094;-50
2024/03/28 10:22:08;;;;;;;6.33;3.17;;;7.70;99.90;;;;;;5073780;28;20028;-54
2024/03/28 10:24:33;;;;;;;6.38;2.58;;;7.60;99.90;;;;;;5073725;28;20146;-51
2024/03/28 10:27:00;;;;;;;4.50;2.17;;;7.60;99.90;;;;;;5073775;28;20129;-49
2024/03/28 10:29:31;;;;;;;8.53;2.50;;;7.60;99.90;;;;;;5073888;28;20028;-49
2024/03/28 10:32:04;;;;;;;3.83;2.30;;;7.60;99.90;;;;;;5073603;28;20032;-52
2024/03/28 10:34:30;;;;;;;6.40;2.30;;;7.50;99.90;;;;;;5073698;28;20059;-49
2024/03/28 10:37:03;;;;;;;5.13;2.60;;;7.60;99.90;;;;;;5073015;28;20466;-51
2024/03/28 10:39:29;;;;;;;3.93;2.10;;;7.70;99.90;;;;;;5073444;28;20098;-50
2024/03/28 10:41:55;;;;;;;7.13;1.93;;;7.70;99.90;;;;;;5073451;28;20477;-50
2024/03/28 10:44:21;;;;;;;2.57;1.50;;;7.70;99.90;;;;;;5073573;28;20020;-49
2024/03/28 10:46:47;;;;;;;3.33;1.70;;;7.80;99.90;;;;;;5073385;28;20424;-52
2024/03/28 10:49:14;;;;;;;5.10;1.43;;;7.80;99.90;;;;;;5073228;28;20426;-51
2024/03/28 10:51:43;;;;;;;3.13;1.60;;;7.80;99.90;;;;;;5073471;28;20124;-52
2024/03/28 10:54:20;;;;;;;3.15;1.20;;;7.80;99.90;;;;;;5073290;28;20048;-50
2024/03/28 10:56:46;;;;;;;5.23;1.80;;;8.00;99.90;;;;;;5072923;28;20037;-50
2024/03/28 10:59:13;;;;;;;7.63;3.40;;;8.20;99.90;;;;;;5055030;28;20032;-52
2024/03/28 11:01:40;;;;;;;6.60;2.33;;;8.50;99.90;;;;;;5073034;28;20025;-49
2024/03/28 11:04:06;;;;;;;4.93;1.80;;;8.70;99.90;;;;;;5073364;28;20111;-50
2024/03/28 11:06:33;;;;;;;3.83;1.80;;;8.70;99.90;;;;;;5073043;28;20164;-52
2024/03/28 11:09:03;;;;;;;3.37;1.30;;;8.80;99.90;;;;;;5073029;28;20024;-50
2024/03/28 11:11:30;;;;;;;1.70;0.80;;;8.80;99.90;;;;;;5073004;28;20497;-52
2024/03/28 11:13:56;;;;;;;1.83;1.00;;;8.90;99.90;;;;;;5072960;28;20036;-51
2024/03/28 11:16:23;;;;;;;2.37;1.00;;;9.00;99.90;;;;;;5072627;28;20401;-51
2024/03/28 11:18:49;;;;;;;1.30;0.90;;;9.00;99.90;;;;;;5072605;28;20454;-49
2024/03/28 11:21:34;;;;;;;3.03;1.00;;;9.10;99.90;;;;;;5072692;28;20393;-52
2024/03/28 11:24:00;;;;;;;4.43;1.50;;;9.20;99.90;;;;;;5054781;28;20028;-51
2024/03/28 11:26:26;;;;;;;5.40;2.13;;;9.30;99.90;;;;;;5072469;28;20029;-50
2024/03/28 11:29:05;;;;;;;4.70;2.03;;;9.40;99.90;;;;;;5072490;28;20159;-50
2024/03/28 11:31:32;;;;;;;4.05;2.00;;;9.70;99.90;;;;;;5072501;28;20531;-51
2024/03/28 11:34:04;;;;;;;6.23;2.80;;;10.10;99.90;;;;;;5072567;28;20129;-53
2024/03/28 11:36:32;;;;;;;5.40;2.57;;;10.50;99.90;;;;;;5072171;28;20100;-51
2024/03/28 11:38:58;;;;;;;5.87;3.33;;;10.70;99.90;;;;;;5072244;28;20133;-51
2024/03/28 11:41:25;;;;;;;6.43;2.13;;;11.00;99.90;;;;;;5072227;28;20021;-51
2024/03/28 11:43:52;;;;;;;4.33;1.63;;;11.10;99.90;;;;;;5072468;28;20035;-49
2024/03/28 11:46:26;;;;;;;3.23;1.00;;;11.20;99.90;;;;;;5072283;28;20054;-50
2024/03/28 11:48:56;;;;;;;2.37;1.13;;;11.50;99.90;;;;;;5053715;28;20039;-51
2024/03/28 11:51:22;;;;;;;1.80;0.90;;;12.20;99.90;;;;;;5072253;28;20031;-53
2024/03/28 11:53:48;;;;;;;1.63;0.80;;;13.00;99.90;;;;;;5072045;28;20029;-49
2024/03/28 11:56:17;;;;;;;1.23;0.82;;;13.40;99.90;;;;;;5071934;28;20166;-50
2024/03/28 11:58:42;;;;;;;3.13;1.00;;;13.10;99.90;;;;;;5072066;28;20108;-53
2024/03/28 12:01:08;;;;;;;3.43;1.20;;;12.60;99.90;;;;;;5072186;28;20468;-50
2024/03/28 12:03:36;;;;;;;2.20;0.93;;;12.40;99.90;;;;;;5072312;28;20033;-53
2024/03/28 12:06:01;;;;;;;4.23;1.03;;;12.10;99.90;;;;;;5071878;28;20031;-51
2024/03/28 12:08:29;;;;;;;2.13;0.97;;;12.00;99.90;;;;;;5071986;28;20029;-54
2024/03/28 12:10:59;;;;;;;2.13;1.20;;;11.90;99.90;;;;;;5054073;28;20485;-55
2024/03/28 12:13:25;;;;;;;2.93;1.20;;;11.60;99.90;;;;;;5072238;28;20387;-54
2024/03/28 12:15:58;;;;;;;2.00;1.03;;;11.20;99.90;;;;;;5071867;28;20047;-53
2024/03/28 12:18:25;;;;;;;2.80;0.93;;;11.10;99.90;;;;;;5071841;28;20031;-54
2024/03/28 12:21:05;;;;;;;5.90;1.30;;;11.10;99.90;;;;;;5071780;28;20060;-51
2024/03/28 12:23:34;;;;;;;1.83;1.00;;;11.10;99.90;;;;;;5071800;28;20036;-50
2024/03/28 12:26:01;;;;;;;1.98;1.00;;;11.20;99.90;;;;;;5071552;28;20021;-50
2024/03/28 12:28:27;;;;;;;2.90;0.60;;;11.20;99.90;;;;;;5071788;28;20068;-49
2024/03/28 12:30:54;;;;;;;5.57;1.20;;;11.20;99.90;;;;;;5071717;28;20480;-52
2024/03/28 12:33:25;;;;;;;2.60;0.73;;;11.30;99.90;;;;;;5071713;28;20039;-53
2024/03/28 12:35:52;;;;;;;5.80;0.50;;;11.50;99.90;;;;;;5071676;28;20118;-49
2024/03/28 12:38:21;;;;;;;1.20;0.63;;;11.70;99.90;;;;;;5071594;28;20484;-50
2024/03/28 12:40:48;;;;;;;2.25;0.50;;;11.80;99.90;;;;;;5071548;28;20029;-49
2024/03/28 12:43:21;;;;;;;3.17;0.50;;;11.90;99.90;;;;;;5071658;28;20078;-49
2024/03/28 12:45:48;;;;;;;1.20;0.30;;;12.30;99.90;;;;;;5071434;28;20063;-49
2024/03/28 12:48:14;;;;;;;2.50;0.63;;;12.60;99.90;;;;;;5071744;28;20021;-53
2024/03/28 12:50:45;;;;;;;2.73;0.30;;;13.10;99.90;;;;;;5071719;28;20039;-51
2024/03/28 12:53:14;;;;;;;2.33;0.60;;;12.90;99.90;;;;;;5071696;28;20032;-49
2024/03/28 12:55:39;;;;;;;0.65;0.35;;;13.10;99.90;;;;;;5071448;28;20029;-50
2024/03/28 12:58:08;;;;;;;2.27;0.57;;;13.10;99.90;;;;;;5071944;28;20043;-50
2024/03/28 13:00:33;;;;;;;2.15;0.57;;;13.00;99.90;;;;;;5074452;28;20039;-51